Time;durP1;ratioP1;P1;durP2;ratioP2;P2;SDS_P1;SDS_P2;PMS_P1;PMS_P2;Temp;Humidity;BMP_temperature;BMP_pressure;BME280_temperature;BME280_humidity;BME280_pressure;Samples;Min_cycle;Max_cycle;Signal;HPM_P1;HPM_P2
2022/08/22 00:00:14;;;;;;;8.95;4.68;;;;;;;17.32;58.89;98907.00;5223698;28;20048;-68
2022/08/22 00:03:27;;;;;;;11.15;5.45;;;;;;;17.32;59.29;98921.22;5223072;28;20094;-68
2022/08/22 00:06:47;;;;;;;7.75;4.63;;;;;;;17.12;59.47;98921.00;5223270;28;20056;-68
2022/08/22 00:09:47;;;;;;;12.15;4.65;;;;;;;17.20;59.78;98927.25;5223646;28;20441;-68
2022/08/22 00:12:58;;;;;;;8.15;4.88;;;;;;;17.24;60.13;98924.00;5222235;28;20142;-69
2022/08/22 00:15:59;;;;;;;8.52;5.05;;;;;;;17.26;59.83;98930.03;5223202;28;20078;-68
2022/08/22 00:19:02;;;;;;;8.95;4.63;;;;;;;17.39;59.75;98913.25;5222960;28;20044;-68
2022/08/22 00:22:00;;;;;;;7.80;5.00;;;;;;;17.53;59.28;98930.31;5222682;28;20056;-68
2022/08/22 00:25:23;;;;;;;6.97;4.78;;;;;;;17.63;59.25;98925.47;5223288;28;20121;-68
2022/08/22 00:28:27;;;;;;;9.45;4.65;;;;;;;17.56;59.31;98924.56;5222851;28;20130;-68
2022/08/22 00:31:20;;;;;;;9.38;4.93;;;;;;;17.25;59.86;98922.16;5222876;28;20052;-68
2022/08/22 00:34:21;;;;;;;11.07;5.57;;;;;;;17.20;60.63;98927.25;5223803;28;20056;-68
2022/08/22 00:37:23;;;;;;;8.93;4.57;;;;;;;17.08;59.79;98922.38;5222883;28;20499;-68
2022/08/22 00:40:32;;;;;;;10.55;4.88;;;;;;;17.03;60.55;98929.31;5223227;28;20060;-68
2022/08/22 00:43:46;;;;;;;6.93;4.60;;;;;;;17.07;60.65;98928.75;5207585;28;20056;-68
2022/08/22 00:47:03;;;;;;;6.90;4.65;;;;;;;17.19;60.87;98923.75;5222848;28;20434;-68
2022/08/22 00:50:19;;;;;;;11.13;5.30;;;;;;;17.19;60.47;98931.78;5207739;28;20170;-68
2022/08/22 00:53:24;;;;;;;12.18;5.43;;;;;;;17.24;60.33;98925.84;5222523;28;20466;-68
2022/08/22 00:56:30;;;;;;;8.88;4.47;;;;;;;17.05;61.29;98927.28;5222642;28;20075;-69
2022/08/22 00:59:41;;;;;;;10.13;4.97;;;;;;;17.02;61.35;98919.59;5222670;28;20056;-68
2022/08/22 01:02:45;;;;;;;7.25;5.13;;;;;;;17.05;60.88;98927.28;5222356;28;20134;-68
2022/08/22 01:05:48;;;;;;;11.25;5.07;;;;;;;16.75;60.98;98924.63;5222951;28;20079;-68
2022/08/22 01:09:03;;;;;;;11.57;4.68;;;;;;;16.52;61.52;98923.84;5224513;28;20159;-68
2022/08/22 01:12:09;;;;;;;;;;;;;;;16.43;62.51;98936.50;5226511;28;20326;-68
2022/08/22 01:15:10;;;;;;;8.30;4.40;;;;;;;16.62;61.74;98917.22;5226959;28;19921;-68
2022/08/22 01:18:19;;;;;;;10.52;4.80;;;;;;;16.63;61.57;98929.59;5226043;28;20072;-68
2022/08/22 01:21:47;;;;;;;9.18;4.47;;;;;;;16.62;61.44;98929.75;5226119;28;20098;-68
2022/08/22 01:25:17;;;;;;;11.30;5.32;;;;;;;16.66;61.58;98933.75;5165612;28;20045;-68
2022/08/22 01:28:41;;;;;;;9.30;5.10;;;;;;;16.57;61.77;98932.16;5226370;28;20060;-68
2022/08/22 01:32:08;;;;;;;9.05;4.50;;;;;;;16.27;62.63;98929.44;5226070;28;20150;-68
2022/08/22 01:35:23;;;;;;;10.93;4.63;;;;;;;16.07;62.86;98929.13;5226364;28;20048;-68
2022/08/22 01:38:57;;;;;;;9.27;4.80;;;;;;;16.32;62.86;98931.56;5226256;28;20518;-68
2022/08/22 01:42:19;;;;;;;10.90;5.03;;;;;;;16.42;61.69;98929.47;5141505;28;20473;-69
2022/08/22 01:45:31;;;;;;;7.78;4.70;;;;;;;16.35;62.36;98933.88;5226081;28;20052;-68
2022/08/22 01:48:37;;;;;;;10.30;5.40;;;;;;;16.01;63.45;98929.03;5225934;28;20064;-68
2022/08/22 01:51:43;;;;;;;9.43;5.32;;;;;;;16.05;63.43;98925.78;5225562;28;20055;-69
2022/08/22 01:54:49;;;;;;;11.82;5.00;;;;;;;16.02;63.15;98934.19;5225785;28;20060;-68
2022/08/22 01:57:56;;;;;;;8.68;5.10;;;;;;;16.06;63.18;98919.47;5225615;28;20107;-68
2022/08/22 02:00:55;;;;;;;14.10;5.97;;;;;;;16.13;63.30;98927.59;5225473;28;20063;-68
2022/08/22 02:04:08;;;;;;;11.60;5.55;;;;;;;16.05;63.41;98935.66;5225228;28;20049;-68
2022/08/22 02:07:10;;;;;;;10.20;5.30;;;;;;;16.06;63.40;98929.31;5225510;28;20570;-68
2022/08/22 02:10:37;;;;;;;9.82;5.88;;;;;;;16.13;63.95;98936.44;5210401;28;20550;-68
2022/08/22 02:13:53;;;;;;;13.23;5.95;;;;;;;16.06;63.44;98932.84;5225449;28;20064;-68
2022/08/22 02:16:49;;;;;;;11.93;5.90;;;;;;;15.90;63.36;98922.28;5225838;28;20064;-68
2022/08/22 02:19:48;;;;;;;11.18;6.22;;;;;;;15.86;63.53;98908.44;5224870;28;20466;-68
2022/08/22 02:22:56;;;;;;;10.00;6.05;;;;;;;16.14;64.14;98926.56;5209795;28;20045;-68
2022/08/22 02:26:01;;;;;;;10.85;5.75;;;;;;;16.09;63.85;98916.44;5225310;28;20194;-68
2022/08/22 02:29:03;;;;;;;9.80;6.00;;;;;;;15.77;63.84;98922.88;5210062;28;20103;-68
2022/08/22 02:32:08;;;;;;;8.70;5.82;;;;;;;15.77;64.23;98922.88;5224536;28;20550;-68
2022/08/22 02:35:04;;;;;;;;;;;;;;;15.74;64.24;98918.69;5225680;28;20186;-68
2022/08/22 02:38:12;;;;;;;13.73;5.95;;;;;;;15.73;64.84;98916.22;5225149;28;19927;-68
2022/08/22 02:41:11;;;;;;;11.50;5.97;;;;;;;15.92;65.28;98912.22;5224818;28;20148;-68
2022/08/22 02:44:17;;;;;;;12.48;6.45;;;;;;;16.03;65.15;98910.97;5224954;28;20107;-68
2022/08/22 02:47:09;;;;;;;12.40;6.22;;;;;;;15.86;64.75;98891.53;5225034;28;20406;-68
2022/08/22 02:50:07;;;;;;;13.38;6.03;;;;;;;15.92;65.21;98907.69;5224970;28;20331;-68
2022/08/22 02:53:20;;;;;;;12.18;6.20;;;;;;;16.03;65.18;98911.78;5224505;28;20060;-68
2022/08/22 02:56:21;;;;;;;15.60;6.22;;;;;;;16.09;64.91;98896.84;5224940;28;20064;-68
2022/08/22 02:59:26;;;;;;;10.68;5.93;;;;;;;16.14;64.27;98897.16;5224373;28;20053;-69
2022/08/22 03:02:31;;;;;;;10.40;5.88;;;;;;;16.37;63.90;98903.25;5238575;22;20418;-74
2022/08/22 03:05:45;;;;;;;9.48;5.82;;;;;;;16.28;63.37;98909.69;5223921;28;20128;-74
2022/08/22 03:08:39;;;;;;;11.20;5.70;;;;;;;16.14;63.54;98910.53;5224414;28;20055;-74
2022/08/22 03:11:44;;;;;;;11.75;5.70;;;;;;;16.05;64.54;98908.91;5222796;28;20059;-74
2022/08/22 03:14:43;;;;;;;8.73;5.65;;;;;;;15.87;64.06;98904.72;5224214;28;20107;-74
2022/08/22 03:17:47;;;;;;;10.48;5.35;;;;;;;15.93;64.20;98928.09;5209152;28;20060;-74
2022/08/22 03:20:45;;;;;;;11.55;5.57;;;;;;;15.87;63.96;98927.97;5223572;28;20056;-74
2022/08/22 03:23:39;;;;;;;11.38;5.85;;;;;;;15.89;63.94;98924.13;5223432;28;20053;-74
2022/08/22 03:26:56;;;;;;;10.15;5.38;;;;;;;15.67;63.66;98930.28;5223778;28;20111;-74
2022/08/22 03:29:53;;;;;;;10.50;5.05;;;;;;;15.67;63.35;98916.94;5208889;28;20111;-74
2022/08/22 03:33:17;;;;;;;8.05;5.38;;;;;;;15.47;64.38;98933.41;5222947;28;20052;-74
2022/08/22 03:36:16;;;;;;;8.93;5.57;;;;;;;15.40;64.99;98923.59;5223730;28;20052;-74
2022/08/22 03:39:16;;;;;;;9.73;5.50;;;;;;;15.50;64.23;98921.53;5223750;28;20135;-74
2022/08/22 03:42:25;;;;;;;9.90;5.30;;;;;;;15.30;65.16;98922.97;5222593;28;20064;-74
2022/08/22 03:45:54;;;;;;;9.57;5.72;;;;;;;15.14;65.52;98926.56;5201172;28;20060;-74
2022/08/22 03:49:06;;;;;;;8.95;5.53;;;;;;;15.40;64.74;98920.94;5193409;28;20064;-74
2022/08/22 03:52:23;;;;;;;9.60;5.93;;;;;;;15.22;64.94;98913.16;5222557;28;20077;-74
2022/08/22 03:55:35;;;;;;;9.18;5.63;;;;;;;15.16;65.00;98919.19;5223504;28;20048;-74
2022/08/22 03:59:00;;;;;;;13.43;5.63;;;;;;;15.08;64.93;98924.59;5223632;28;20055;-74
2022/08/22 04:02:20;;;;;;;10.98;5.50;;;;;;;14.90;64.94;98925.69;5222658;28;20064;-74
2022/08/22 04:06:41;;;;;;;9.57;4.93;;;;;;;14.80;66.05;98931.22;5223629;28;20554;-74
2022/08/22 04:09:57;;;;;;;11.95;6.57;;;;;;;14.99;65.28;98919.28;5114469;28;20089;-74
2022/08/22 04:13:10;;;;;;;8.10;5.57;;;;;;;15.25;64.43;98935.00;5166875;28;20061;-74
2022/08/22 04:16:28;;;;;;;9.55;5.13;;;;;;;14.94;65.09;98935.00;5222982;28;20565;-74
2022/08/22 04:19:31;;;;;;;13.18;6.55;;;;;;;14.98;65.58;98944.31;5207284;28;20106;-74
2022/08/22 04:22:46;;;;;;;15.60;6.47;;;;;;;14.99;65.11;98940.63;5221865;28;20115;-74
2022/08/22 04:25:39;;;;;;;;;;;;;;;14.74;65.19;98955.09;5224037;28;20052;-72
2022/08/22 04:28:36;;;;;;;10.35;5.55;;;;;;;14.75;65.89;98954.91;5223067;28;20604;-74
2022/08/22 04:31:33;;;;;;;12.43;5.85;;;;;;;14.78;65.67;98949.22;5222739;28;20107;-74
2022/08/22 04:34:33;;;;;;;12.48;6.30;;;;;;;14.86;65.72;98961.72;5207726;28;20052;-74
2022/08/22 04:37:34;;;;;;;14.60;6.40;;;;;;;14.86;65.42;98956.38;5223625;28;20724;-73
2022/08/22 04:40:42;;;;;;;10.00;6.00;;;;;;;14.50;66.71;98956.84;5222828;28;20410;-74
2022/08/22 04:43:46;;;;;;;14.18;7.05;;;;;;;14.62;65.77;98951.13;5224126;28;20511;-74
2022/08/22 04:46:44;;;;;;;9.80;6.40;;;;;;;14.60;66.43;98958.44;5227584;28;20064;-74
2022/08/22 04:49:42;;;;;;;15.13;6.88;;;;;;;14.55;66.45;98953.63;5227305;28;20064;-74
2022/08/22 04:52:47;;;;;;;15.18;7.55;;;;;;;14.70;65.53;98961.75;5225979;28;20518;-74
2022/08/22 04:55:55;;;;;;;8.82;6.47;;;;;;;14.60;65.18;98950.44;5212207;28;20075;-74
2022/08/22 04:58:57;;;;;;;17.65;6.43;;;;;;;14.61;66.17;98963.63;5227850;28;20409;-74
2022/08/22 05:02:04;;;;;;;12.30;6.93;;;;;;;14.84;66.44;98966.41;5225594;28;20068;-74
2022/08/22 05:05:03;;;;;;;12.85;7.05;;;;;;;14.93;66.32;98975.22;5226952;28;20064;-74
2022/08/22 05:07:58;;;;;;;11.50;6.65;;;;;;;14.80;65.76;98967.72;5226537;28;20502;-74
2022/08/22 05:10:51;;;;;;;14.27;7.22;;;;;;;14.78;66.33;98959.91;5225626;28;20205;-74
2022/08/22 05:13:47;;;;;;;14.98;7.85;;;;;;;14.92;66.68;98978.88;5226061;28;20521;-74
2022/08/22 05:16:40;;;;;;;15.90;7.25;;;;;;;15.09;66.63;98968.97;5226258;28;20138;-74
2022/08/22 05:19:36;;;;;;;14.02;7.82;;;;;;;15.15;66.17;98974.47;5225723;28;20063;-74
2022/08/22 05:22:35;;;;;;;10.75;7.25;;;;;;;15.22;66.63;98971.94;5210588;28;20530;-74
2022/08/22 05:25:30;;;;;;;14.00;8.05;;;;;;;15.32;66.48;98985.06;5226502;28;20112;-73
2022/08/22 05:28:32;;;;;;;13.70;7.95;;;;;;;15.26;66.37;98979.44;5226170;28;20076;-74
2022/08/22 05:31:28;;;;;;;13.77;7.57;;;;;;;15.27;66.06;98980.25;5210399;28;20052;-74
2022/08/22 05:34:22;;;;;;;13.85;7.53;;;;;;;15.26;66.05;98981.25;5211252;28;20092;-74
2022/08/22 05:37:19;;;;;;;11.63;7.65;;;;;;;15.29;66.59;98980.91;5226074;28;20100;-74
2022/08/22 05:40:19;;;;;;;16.02;9.13;;;;;;;15.52;66.29;98984.44;5210929;28;20063;-74
2022/08/22 05:43:11;;;;;;;18.08;9.13;;;;;;;15.63;66.76;98977.91;5225134;28;20041;-74
2022/08/22 05:46:06;;;;;;;12.43;8.27;;;;;;;15.71;66.01;98969.03;5210833;28;20458;-74
2022/08/22 05:48:59;;;;;;;14.77;9.55;;;;;;;15.83;66.18;98975.63;5226194;28;20064;-74
2022/08/22 05:52:18;;;;;;;15.32;8.63;;;;;;;15.97;66.11;98977.50;5225134;28;20147;-74
2022/08/22 05:55:26;;;;;;;17.90;8.55;;;;;;;16.31;65.47;98978.91;5210745;28;20064;-74
2022/08/22 05:58:36;;;;;;;10.48;8.32;;;;;;;16.29;65.30;98972.94;5225912;28;20144;-74
2022/08/22 06:01:45;;;;;;;18.35;9.18;;;;;;;16.40;65.71;98959.09;5209974;28;20060;-74
2022/08/22 06:04:44;;;;;;;16.13;8.07;;;;;;;16.60;65.50;98979.97;5226348;28;20060;-74
2022/08/22 06:07:47;;;;;;;17.67;8.93;;;;;;;16.98;63.95;98979.94;5225679;28;20055;-74
2022/08/22 06:10:44;;;;;;;14.43;8.30;;;;;;;17.13;62.92;98970.03;5224212;28;20068;-74
2022/08/22 06:13:41;;;;;;;11.23;7.65;;;;;;;17.12;63.26;98979.13;5225005;28;20498;-74
2022/08/22 06:16:48;;;;;;;13.93;8.70;;;;;;;17.21;62.65;98977.13;5225182;28;20056;-74
2022/08/22 06:19:42;;;;;;;16.73;7.60;;;;;;;17.17;62.83;98976.69;5224883;28;20430;-73
2022/08/22 06:22:37;;;;;;;13.15;8.55;;;;;;;17.30;62.22;98981.38;5224102;28;20045;-74
2022/08/22 06:25:32;;;;;;;23.77;7.88;;;;;;;17.60;61.03;98974.94;5225421;28;20430;-74
2022/08/22 06:28:26;;;;;;;11.93;7.55;;;;;;;17.68;60.00;98982.06;5225268;28;20068;-74
2022/08/22 06:31:21;;;;;;;12.10;7.28;;;;;;;17.81;59.49;98982.22;5209909;28;20534;-73
2022/08/22 06:34:14;;;;;;;10.73;7.15;;;;;;;17.87;59.95;98980.59;5225270;28;20041;-74
2022/08/22 06:37:10;;;;;;;9.18;6.50;;;;;;;17.92;58.88;98961.28;5224926;28;20240;-74
2022/08/22 06:40:03;;;;;;;16.88;7.57;;;;;;;18.05;58.97;98977.50;5225600;28;20049;-74
2022/08/22 06:42:56;;;;;;;17.75;7.15;;;;;;;18.17;58.05;98962.50;5209414;28;20435;-74
2022/08/22 06:45:47;;;;;;;15.70;6.40;;;;;;;18.38;57.54;98977.78;5224945;28;20049;-74
2022/08/22 06:48:37;;;;;;;9.88;6.30;;;;;;;18.57;58.07;98970.88;5225100;28;20530;-74
2022/08/22 06:51:28;;;;;;;10.93;6.03;;;;;;;18.83;57.67;98977.50;5222984;28;20053;-74
2022/08/22 06:54:24;;;;;;;16.70;7.20;;;;;;;18.89;58.07;98987.44;5225089;28;20545;-74
2022/08/22 06:57:29;;;;;;;11.10;6.88;;;;;;;19.17;57.75;98988.25;5224755;28;20071;-74
2022/08/22 07:00:19;;;;;;;11.40;6.95;;;;;;;19.17;57.55;98993.63;5224292;28;20142;-74
2022/08/22 07:03:19;;;;;;;14.85;6.72;;;;;;;19.30;57.07;98992.81;5208660;28;20509;-75
2022/08/22 07:06:28;;;;;;;11.15;6.32;;;;;;;19.44;57.06;98997.25;5208332;28;20170;-74
2022/08/22 07:09:27;;;;;;;11.52;6.93;;;;;;;19.54;57.13;98996.88;5224360;28;20051;-74
2022/08/22 07:12:20;;;;;;;11.15;6.03;;;;;;;19.68;57.17;98998.59;5222205;28;20511;-74
2022/08/22 07:15:19;;;;;;;12.93;6.00;;;;;;;20.09;55.65;99000.34;5209615;28;20491;-74
2022/08/22 07:18:23;;;;;;;14.88;6.80;;;;;;;20.27;55.19;99001.63;5223523;28;20222;-74
2022/08/22 07:21:24;;;;;;;9.85;5.60;;;;;;;20.51;54.72;98984.03;5223634;28;20546;-74
2022/08/22 07:24:23;;;;;;;9.70;6.43;;;;;;;20.97;53.39;98983.97;5223990;28;20059;-74
2022/08/22 07:27:41;;;;;;;9.95;6.15;;;;;;;21.14;52.99;98994.28;5208722;28;20067;-74
2022/08/22 07:30:53;;;;;;;11.98;6.18;;;;;;;21.50;52.21;98994.59;5223652;28;20048;-74
2022/08/22 07:33:48;;;;;;;9.27;5.85;;;;;;;21.77;51.07;98989.06;5223879;28;20629;-74
2022/08/22 07:36:46;;;;;;;;;;;;;;;22.58;48.83;98987.44;5224057;28;20486;-74
2022/08/22 07:39:58;;;;;;;8.20;5.28;;;;;;;22.95;48.09;98997.31;5208915;28;19927;-74
2022/08/22 07:43:12;;;;;;;12.07;5.63;;;;;;;23.50;48.17;98988.34;5222724;28;20079;-74
2022/08/22 07:46:33;;;;;;;14.90;5.60;;;;;;;24.65;44.28;98992.75;5223786;28;20060;-74
2022/08/22 07:49:36;;;;;;;9.20;5.47;;;;;;;25.83;42.12;98993.41;5223760;28;20094;-74
2022/08/22 07:52:43;;;;;;;7.60;4.55;;;;;;;26.44;41.27;98989.00;5222337;28;20049;-73
2022/08/22 07:55:37;;;;;;;12.15;5.57;;;;;;;26.64;41.04;98993.16;5223584;28;20084;-74
2022/08/22 07:58:41;;;;;;;7.38;4.57;;;;;;;27.34;39.17;98994.44;5224002;28;20068;-73
2022/08/22 08:01:33;;;;;;;7.97;4.33;;;;;;;27.78;38.71;98995.28;5222810;28;20056;-74
2022/08/22 08:04:29;;;;;;;7.93;4.72;;;;;;;28.39;36.00;98967.78;5223751;28;20056;-74
2022/08/22 08:07:26;;;;;;;9.30;4.28;;;;;;;28.85;36.02;98998.13;5223257;28;20060;-74
2022/08/22 08:10:33;;;;;;;8.95;4.35;;;;;;;29.15;36.25;98989.31;5222629;28;20045;-74
2022/08/22 08:13:32;;;;;;;8.23;4.20;;;;;;;29.65;36.81;99003.47;5207842;28;20124;-74
2022/08/22 08:16:29;;;;;;;7.57;4.45;;;;;;;29.93;35.31;99002.16;5223391;28;20095;-73
2022/08/22 08:19:21;;;;;;;9.25;4.22;;;;;;;30.11;33.99;98989.91;5222968;28;20056;-74
2022/08/22 08:22:17;;;;;;;7.57;4.00;;;;;;;29.83;34.43;98983.84;5222432;28;20072;-74
2022/08/22 08:25:11;;;;;;;10.35;4.53;;;;;;;30.55;34.72;98998.41;5209320;28;20061;-73
2022/08/22 08:31:26;;;;;;;8.13;4.07;;;;;;;31.31;32.60;99000.19;5222972;28;20268;-73
2022/08/22 08:34:21;;;;;;;8.73;4.15;;;;;;;29.92;33.58;98995.06;5223378;28;20076;-73
2022/08/22 08:37:22;;;;;;;5.97;4.05;;;;;;;30.97;31.71;98993.75;5223012;28;20487;-74
2022/08/22 08:40:26;;;;;;;6.82;3.47;;;;;;;31.02;32.49;98986.31;5208167;28;20163;-74
2022/08/22 08:43:51;;;;;;;5.57;3.67;;;;;;;31.09;31.43;98994.25;5222042;28;20119;-74
2022/08/22 08:46:58;;;;;;;4.75;3.63;;;;;;;31.70;30.67;98994.03;5223067;28;20068;-74
2022/08/22 08:50:10;;;;;;;7.45;3.78;;;;;;;31.51;30.28;98993.84;5223240;28;20426;-74
2022/08/22 08:53:39;;;;;;;8.77;3.88;;;;;;;31.63;31.73;98968.84;5207206;28;20540;-74
2022/08/22 08:56:56;;;;;;;6.72;3.80;;;;;;;32.21;30.95;98981.94;5222877;28;20162;-74
2022/08/22 09:00:13;;;;;;;5.70;3.40;;;;;;;32.15;30.02;98978.41;5222997;28;20052;-74
2022/08/22 09:03:10;;;;;;;6.80;3.40;;;;;;;32.18;30.03;98985.25;5222734;28;20641;-74
2022/08/22 09:06:32;;;;;;;5.70;3.92;;;;;;;31.98;29.86;98970.56;5222617;28;20052;-75
2022/08/22 09:09:44;;;;;;;6.47;3.58;;;;;;;33.00;28.59;98968.88;5222965;28;20485;-74
2022/08/22 09:12:49;;;;;;;5.95;3.78;;;;;;;33.22;29.79;98966.44;5220811;28;20198;-74
2022/08/22 09:16:09;;;;;;;6.70;3.80;;;;;;;33.43;28.30;98966.97;5222968;28;20517;-74
2022/08/22 09:19:23;;;;;;;6.78;3.45;;;;;;;33.28;29.04;98963.59;5221289;28;20059;-74
2022/08/22 09:22:47;;;;;;;5.90;3.67;;;;;;;33.57;29.89;98972.59;5221548;28;20215;-74
2022/08/22 09:25:49;;;;;;;5.70;3.50;;;;;;;32.55;29.76;98962.75;5223276;28;20483;-73
2022/08/22 09:29:17;;;;;;;8.73;3.40;;;;;;;32.88;29.53;98961.03;5222715;28;20511;-73
2022/08/22 09:32:16;;;;;;;3.72;3.28;;;;;;;33.31;29.20;98950.13;5191912;28;20057;-73
2022/08/22 09:35:19;;;;;;;3.53;3.20;;;;;;;33.87;28.82;98957.59;5226542;28;20075;-74
2022/08/22 09:38:40;;;;;;;4.38;3.65;;;;;;;33.89;28.28;98949.06;5226312;28;20175;-74
2022/08/22 09:41:52;;;;;;;4.65;3.72;;;;;;;34.08;28.22;98963.66;5225307;28;20585;-73
2022/08/22 09:45:05;;;;;;;6.15;3.40;;;;;;;34.36;28.08;98953.53;5226468;28;20179;-74
2022/08/22 09:48:12;;;;;;;3.67;3.30;;;;;;;34.89;27.91;98963.34;5226055;28;20427;-73
2022/08/22 09:51:15;;;;;;;3.58;3.22;;;;;;;33.97;27.20;98948.38;5225349;28;20140;-74
2022/08/22 09:54:29;;;;;;;4.72;3.55;;;;;;;34.06;27.59;98959.56;5226022;28;20052;-73
2022/08/22 09:57:32;;;;;;;4.47;3.63;;;;;;;33.57;27.93;98955.28;5224484;28;20072;-73
2022/08/22 10:00:31;;;;;;;4.00;3.60;;;;;;;33.77;28.28;98954.19;5210434;28;20067;-73
2022/08/22 10:03:50;;;;;;;3.85;3.45;;;;;;;34.50;28.34;98963.75;5225096;28;20124;-73
2022/08/22 10:07:06;;;;;;;5.70;3.80;;;;;;;33.08;27.75;98954.53;5225725;28;20060;-74
2022/08/22 10:10:26;;;;;;;6.35;3.50;;;;;;;33.88;27.87;98947.44;5225991;28;20526;-74
2022/08/22 10:13:40;;;;;;;4.80;3.58;;;;;;;34.32;28.44;98954.44;5195959;28;20280;-73
2022/08/22 10:16:43;;;;;;;4.72;3.45;;;;;;;34.31;26.92;98948.13;5225892;28;20400;-73
2022/08/22 10:19:41;;;;;;;4.78;3.75;;;;;;;33.91;27.74;98952.34;5208857;28;20184;-73
2022/08/22 10:22:39;;;;;;;5.57;3.30;;;;;;;33.84;27.84;98947.22;5209245;28;20099;-73
2022/08/22 10:26:15;;;;;;;4.05;3.17;;;;;;;33.58;27.11;98945.94;5225519;28;20056;-73
2022/08/22 10:29:36;;;;;;;3.38;2.70;;;;;;;34.43;26.54;98935.81;5225502;28;20142;-73
2022/08/22 10:32:36;;;;;;;4.68;3.03;;;;;;;33.71;27.20;98927.88;5223836;28;20304;-73
2022/08/22 10:35:31;;;;;;;3.67;3.30;;;;;;;33.61;27.13;98929.69;5225580;28;20592;-73
2022/08/22 10:38:31;;;;;;;3.65;3.35;;;;;;;34.11;27.38;98927.28;5225296;28;20427;-74
2022/08/22 10:41:27;;;;;;;4.38;3.15;;;;;;;34.09;25.97;98924.00;5224557;28;20548;-73
2022/08/22 10:44:23;;;;;;;3.92;3.35;;;;;;;33.39;25.69;98921.16;5225245;28;20135;-73
2022/08/22 10:47:22;;;;;;;3.42;2.97;;;;;;;33.47;27.20;98923.22;5209770;28;20060;-73
2022/08/22 10:50:34;;;;;;;5.47;3.33;;;;;;;33.55;27.59;98922.63;5224600;28;20049;-73
2022/08/22 10:53:32;;;;;;;3.33;3.00;;;;;;;33.55;27.69;98916.31;5209178;28;20478;-73
2022/08/22 10:56:41;;;;;;;5.10;3.42;;;;;;;33.71;25.33;98895.72;5224909;28;20053;-73
2022/08/22 10:59:45;;;;;;;4.47;3.00;;;;;;;33.64;26.27;98901.59;5224599;28;20139;-73
2022/08/22 11:02:50;;;;;;;3.22;2.83;;;;;;;33.48;25.87;98889.16;5208545;28;20060;-73
2022/08/22 11:05:47;;;;;;;5.25;3.63;;;;;;;33.06;26.44;98885.31;5224377;28;20096;-73
2022/08/22 11:09:18;;;;;;;5.53;2.97;;;;;;;33.22;26.34;98886.75;5224475;28;20131;-73
2022/08/22 11:12:25;;;;;;;4.05;2.80;;;;;;;31.93;26.89;98876.56;5222050;28;20072;-73
2022/08/22 11:16:11;;;;;;;4.10;2.60;;;;;;;33.05;27.46;98875.44;5224244;28;20128;-73
2022/08/22 11:19:31;;;;;;;4.45;2.85;;;;;;;32.92;26.78;98885.19;5172374;28;20063;-73
2022/08/22 11:22:40;;;;;;;5.88;3.13;;;;;;;33.33;26.33;98879.19;5223101;28;20382;-73
2022/08/22 11:25:47;;;;;;;4.15;3.30;;;;;;;34.13;23.90;98877.44;5224017;28;20099;-73
2022/08/22 11:29:09;;;;;;;6.45;2.80;;;;;;;33.67;23.64;98873.47;5224080;28;20045;-73
2022/08/22 11:32:15;;;;;;;4.47;2.97;;;;;;;33.50;24.04;98864.13;5222728;28;20431;-73
2022/08/22 11:35:20;;;;;;;5.17;2.83;;;;;;;33.22;25.89;98862.03;5224239;28;20116;-73
2022/08/22 11:38:34;;;;;;;4.18;2.50;;;;;;;33.40;25.24;98862.31;5223877;28;20060;-73
2022/08/22 11:41:53;;;;;;;4.80;2.70;;;;;;;33.02;25.25;98856.81;5223313;28;20084;-73
2022/08/22 11:44:59;;;;;;;4.28;2.50;;;;;;;33.46;24.16;98847.41;5223700;28;20052;-73
2022/08/22 11:48:01;;;;;;;4.13;2.50;;;;;;;33.74;23.37;98858.53;5223649;28;20053;-73
2022/08/22 11:51:03;;;;;;;3.00;2.38;;;;;;;34.01;22.84;98855.94;5223287;28;20549;-73
2022/08/22 11:54:20;;;;;;;5.15;3.08;;;;;;;33.62;24.42;98853.50;5224378;28;20125;-72
2022/08/22 11:57:35;;;;;;;3.13;2.70;;;;;;;33.48;25.18;98850.66;5223785;28;20085;-73
2022/08/22 12:00:56;;;;;;;3.15;2.72;;;;;;;32.64;25.84;98853.94;5208548;28;20095;-73
2022/08/22 12:04:06;;;;;;;5.03;3.25;;;;;;;32.64;25.96;98845.69;5207830;28;20562;-72
2022/08/22 12:07:11;;;;;;;4.50;3.00;;;;;;;33.02;25.77;98836.78;5223488;28;20526;-73
2022/08/22 12:10:27;;;;;;;3.85;2.90;;;;;;;32.58;26.13;98844.13;5223155;28;20152;-72
2022/08/22 12:13:39;;;;;;;3.53;2.75;;;;;;;32.67;26.30;98844.31;5207478;28;20049;-73
2022/08/22 12:16:49;;;;;;;3.20;2.70;;;;;;;31.79;25.65;98840.75;5222835;28;20045;-73
2022/08/22 12:20:31;;;;;;;4.00;2.53;;;;;;;32.04;26.65;98837.78;5221904;28;20060;-73
2022/08/22 12:23:24;;;;;;;5.70;2.45;;;;;;;31.93;26.48;98835.44;5142927;28;20058;-73
2022/08/22 12:27:11;;;;;;;5.57;2.80;;;;;;;31.69;26.43;98827.94;5223142;28;20195;-72
2022/08/22 12:30:44;;;;;;;4.82;3.08;;;;;;;31.68;27.83;98839.97;5208948;28;20315;-72
2022/08/22 12:34:12;;;;;;;7.13;3.15;;;;;;;31.57;27.98;98839.25;5222646;28;20426;-73
2022/08/22 12:37:28;;;;;;;4.30;3.05;;;;;;;31.19;28.24;98835.34;5222788;28;20502;-72
2022/08/22 12:40:25;;;;;;;3.17;2.60;;;;;;;31.38;28.04;98834.72;5222926;28;20053;-73
2022/08/22 12:43:40;;;;;;;4.45;2.70;;;;;;;31.54;28.41;98820.63;5207263;28;20184;-72
2022/08/22 12:46:59;;;;;;;3.78;2.70;;;;;;;31.77;27.69;98824.56;5223021;28;20116;-72
2022/08/22 12:50:12;;;;;;;6.65;3.30;;;;;;;31.20;28.39;98820.56;5207928;28;20139;-73
2022/08/22 12:53:52;;;;;;;3.20;2.85;;;;;;;31.06;27.52;98822.28;5222460;28;20592;-73
2022/08/22 12:56:45;;;;;;;4.55;2.92;;;;;;;31.54;28.06;98808.84;5215616;28;20527;-73
2022/08/22 12:59:42;;;;;;;7.13;2.85;;;;;;;31.08;28.15;98798.19;5222822;28;20064;-73
2022/08/22 13:02:38;;;;;;;3.38;2.72;;;;;;;31.47;27.96;98806.44;5221904;28;20059;-73
2022/08/22 13:05:30;;;;;;;3.45;2.42;;;;;;;31.49;28.18;98804.25;5210701;28;20083;-73
2022/08/22 13:08:42;;;;;;;4.13;3.10;;;;;;;31.25;27.90;98798.59;5220450;28;20060;-73
2022/08/22 13:11:37;;;;;;;4.82;2.90;;;;;;;30.87;28.51;98809.25;5224832;28;20096;-73
2022/08/22 13:14:30;;;;;;;6.05;3.17;;;;;;;31.06;28.03;98808.59;5226707;28;20167;-73
2022/08/22 13:17:22;;;;;;;4.47;3.03;;;;;;;30.75;27.79;98811.47;5226501;28;20060;-73
2022/08/22 13:20:33;;;;;;;;;;;;;;;30.61;29.05;98811.25;5226438;28;20522;-73
2022/08/22 13:23:29;;;;;;;3.53;2.72;;;;;;;30.36;29.13;98814.88;5211029;28;19928;-73
2022/08/22 13:26:22;;;;;;;5.47;2.67;;;;;;;30.42;29.13;98810.22;5226684;28;20630;-73
2022/08/22 13:29:37;;;;;;;4.68;2.95;;;;;;;30.10;29.07;98805.06;5226754;28;20426;-73
2022/08/22 13:32:40;;;;;;;3.78;2.97;;;;;;;30.00;29.92;98799.59;5210528;28;20053;-73
2022/08/22 13:35:55;;;;;;;5.13;2.90;;;;;;;29.80;29.11;98786.78;5226704;28;20102;-74
2022/08/22 13:39:08;;;;;;;3.50;2.80;;;;;;;29.91;29.83;98802.91;5226539;28;20119;-73
2022/08/22 13:42:04;;;;;;;4.00;2.50;;;;;;;30.32;28.44;98802.03;5225048;28;20525;-73
2022/08/22 13:45:12;;;;;;;4.55;3.15;;;;;;;29.62;28.79;98804.56;5226048;28;20187;-73
2022/08/22 13:48:26;;;;;;;4.75;3.05;;;;;;;29.90;30.86;98805.91;5226014;28;20045;-73
2022/08/22 13:51:25;;;;;;;;;;;;;;;29.93;29.84;98792.53;5225671;28;20158;-73
2022/08/22 13:54:15;;;;;;;3.92;2.83;;;;;;;29.94;29.62;98799.63;5226128;28;19920;-73
2022/08/22 13:57:30;;;;;;;4.38;2.63;;;;;;;29.96;30.06;98793.88;5225641;28;20534;-73
2022/08/22 14:01:02;;;;;;;5.60;3.08;;;;;;;29.75;30.41;98795.00;5225584;28;20060;-73
2022/08/22 14:04:11;;;;;;;2.92;2.45;;;;;;;29.63;30.20;98781.59;5210115;28;20057;-73
2022/08/22 14:08:00;;;;;;;4.80;2.80;;;;;;;29.78;30.25;98795.25;5224446;28;20068;-73
2022/08/22 14:10:54;;;;;;;4.05;2.75;;;;;;;29.77;29.96;98790.91;5224776;28;20060;-73
2022/08/22 14:13:59;;;;;;;3.95;3.03;;;;;;;29.73;29.97;98796.09;5225564;28;20048;-73
2022/08/22 14:16:52;;;;;;;4.07;2.90;;;;;;;29.89;30.59;98777.75;5224838;28;20126;-73
2022/08/22 14:19:56;;;;;;;3.92;2.88;;;;;;;29.94;30.00;98785.97;5224422;28;20208;-73
2022/08/22 14:23:22;;;;;;;5.40;2.97;;;;;;;29.71;29.80;98781.88;5224774;28;20111;-73
2022/08/22 14:26:24;;;;;;;4.93;2.70;;;;;;;29.78;30.41;98780.78;5224773;28;20099;-73
2022/08/22 14:29:33;;;;;;;3.90;2.95;;;;;;;29.71;29.95;98776.41;5225753;28;20053;-73
2022/08/22 14:32:40;;;;;;;7.32;2.53;;;;;;;29.70;29.97;98772.06;5224139;28;20060;-73
2022/08/22 14:35:45;;;;;;;4.78;3.00;;;;;;;29.69;30.52;98770.38;5225490;28;20143;-73
2022/08/22 14:38:51;;;;;;;5.25;2.85;;;;;;;29.98;30.32;98769.81;5225075;28;20127;-73